sensor_id;sensor_type;location;lat;lon;timestamp;pressure;altitude;pressure_sealevel;temperature;humidity
61742;BME280;47650;49.848;9.620;2024-01-16T00:02:11;98874.50;;;1.28;92.79
61742;BME280;47650;49.848;9.620;2024-01-16T00:04:37;98859.75;;;1.40;91.24
61742;BME280;47650;49.848;9.620;2024-01-16T00:07:04;98873.88;;;0.99;93.85
61742;BME280;47650;49.848;9.620;2024-01-16T00:09:32;98864.66;;;0.93;93.11
61742;BME280;47650;49.848;9.620;2024-01-16T00:11:59;98859.66;;;1.03;92.26
61742;BME280;47650;49.848;9.620;2024-01-16T00:14:24;98867.78;;;0.85;92.53
61742;BME280;47650;49.848;9.620;2024-01-16T00:16:51;98819.34;;;1.07;91.16
61742;BME280;47650;49.848;9.620;2024-01-16T00:19:17;98866.16;;;1.36;89.33
61742;BME280;47650;49.848;9.620;2024-01-16T00:21:45;98898.41;;;1.35;90.00
61742;BME280;47650;49.848;9.620;2024-01-16T00:24:15;98881.81;;;1.36;90.38
61742;BME280;47650;49.848;9.620;2024-01-16T00:26:41;98911.38;;;1.23;90.05
61742;BME280;47650;49.848;9.620;2024-01-16T00:29:06;98871.56;;;1.07;91.42
61742;BME280;47650;49.848;9.620;2024-01-16T00:31:32;98839.38;;;0.81;91.36
61742;BME280;47650;49.848;9.620;2024-01-16T00:33:57;98892.53;;;1.05;91.18
61742;BME280;47650;49.848;9.620;2024-01-16T00:36:23;98899.16;;;1.24;89.65
61742;BME280;47650;49.848;9.620;2024-01-16T00:38:48;98840.06;;;0.57;91.13
61742;BME280;47650;49.848;9.620;2024-01-16T00:41:15;98891.00;;;1.28;89.75
61742;BME280;47650;49.848;9.620;2024-01-16T00:43:42;98907.41;;;1.30;90.51
61742;BME280;47650;49.848;9.620;2024-01-16T00:46:07;98891.63;;;1.19;88.17
61742;BME280;47650;49.848;9.620;2024-01-16T00:48:33;98877.44;;;1.23;88.90
61742;BME280;47650;49.848;9.620;2024-01-16T00:50:59;98921.63;;;1.39;88.86
61742;BME280;47650;49.848;9.620;2024-01-16T00:53:26;98923.28;;;1.15;90.83
61742;BME280;47650;49.848;9.620;2024-01-16T00:55:52;98920.88;;;1.24;89.04
61742;BME280;47650;49.848;9.620;2024-01-16T00:58:19;98916.63;;;1.49;88.34
61742;BME280;47650;49.848;9.620;2024-01-16T01:00:44;98897.69;;;1.20;88.59
61742;BME280;47650;49.848;9.620;2024-01-16T01:03:13;98911.34;;;1.10;89.13
61742;BME280;47650;49.848;9.620;2024-01-16T01:05:40;98922.25;;;1.43;88.18
61742;BME280;47650;49.848;9.620;2024-01-16T01:08:05;98915.97;;;1.58;87.54
61742;BME280;47650;49.848;9.620;2024-01-16T01:10:31;98926.53;;;1.44;88.19
61742;BME280;47650;49.848;9.620;2024-01-16T01:12:56;98927.38;;;1.31;88.68
61742;BME280;47650;49.848;9.620;2024-01-16T01:15:21;98927.69;;;1.65;88.34
61742;BME280;47650;49.848;9.620;2024-01-16T01:17:51;98876.47;;;1.11;89.55
61742;BME280;47650;49.848;9.620;2024-01-16T01:20:19;98932.34;;;1.09;90.43
61742;BME280;47650;49.848;9.620;2024-01-16T01:22:45;98941.22;;;1.19;91.04
61742;BME280;47650;49.848;9.620;2024-01-16T01:25:11;98879.06;;;0.46;91.74
61742;BME280;47650;49.848;9.620;2024-01-16T01:30:06;98931.31;;;0.71;93.90
61742;BME280;47650;49.848;9.620;2024-01-16T01:32:32;98937.56;;;1.09;93.50
61742;BME280;47650;49.848;9.620;2024-01-16T01:34:58;98894.47;;;0.76;91.57
61742;BME280;47650;49.848;9.620;2024-01-16T01:37:24;98942.22;;;1.44;90.78
61742;BME280;47650;49.848;9.620;2024-01-16T01:39:50;98940.25;;;0.94;91.92
61742;BME280;47650;49.848;9.620;2024-01-16T01:42:17;98942.81;;;1.35;90.63
61742;BME280;47650;49.848;9.620;2024-01-16T01:44:43;98936.56;;;1.50;90.52
61742;BME280;47650;49.848;9.620;2024-01-16T01:47:10;98936.88;;;1.33;89.99
61742;BME280;47650;49.848;9.620;2024-01-16T01:49:35;98709.88;;;-0.39;91.92
61742;BME280;47650;49.848;9.620;2024-01-16T01:52:02;98926.56;;;0.91;90.45
61742;BME280;47650;49.848;9.620;2024-01-16T01:54:29;98953.44;;;1.06;92.92
61742;BME280;47650;49.848;9.620;2024-01-16T01:56:56;98956.38;;;1.14;92.00
61742;BME280;47650;49.848;9.620;2024-01-16T01:59:23;98957.34;;;1.26;92.38
61742;BME280;47650;49.848;9.620;2024-01-16T02:01:51;98911.56;;;0.67;92.20
61742;BME280;47650;49.848;9.620;2024-01-16T02:04:28;98930.69;;;1.08;91.40
61742;BME280;47650;49.848;9.620;2024-01-16T02:06:54;98967.44;;;1.05;91.45
61742;BME280;47650;49.848;9.620;2024-01-16T02:09:21;98960.22;;;0.96;91.92
61742;BME280;47650;49.848;9.620;2024-01-16T02:11:47;98980.50;;;0.78;94.24
61742;BME280;47650;49.848;9.620;2024-01-16T02:14:12;98957.59;;;0.96;92.92
61742;BME280;47650;49.848;9.620;2024-01-16T02:16:41;98963.00;;;0.80;93.75
61742;BME280;47650;49.848;9.620;2024-01-16T02:19:07;98981.38;;;0.91;92.71
61742;BME280;47650;49.848;9.620;2024-01-16T02:21:47;98955.97;;;0.80;91.80
61742;BME280;47650;49.848;9.620;2024-01-16T02:24:22;98976.47;;;1.26;90.93
61742;BME280;47650;49.848;9.620;2024-01-16T02:26:47;98919.38;;;0.94;89.40
61742;BME280;47650;49.848;9.620;2024-01-16T02:29:18;98961.34;;;1.31;87.92
61742;BME280;47650;49.848;9.620;2024-01-16T02:31:44;98971.13;;;0.88;91.47
61742;BME280;47650;49.848;9.620;2024-01-16T02:34:10;98927.94;;;0.97;89.73
61742;BME280;47650;49.848;9.620;2024-01-16T02:36:36;98967.22;;;1.08;90.48
61742;BME280;47650;49.848;9.620;2024-01-16T02:39:07;98932.31;;;0.96;90.12
61742;BME280;47650;49.848;9.620;2024-01-16T02:41:32;98968.22;;;0.92;90.75
61742;BME280;47650;49.848;9.620;2024-01-16T02:43:57;98976.31;;;1.15;90.87
61742;BME280;47650;49.848;9.620;2024-01-16T02:46:23;98974.69;;;0.87;91.64
61742;BME280;47650;49.848;9.620;2024-01-16T02:48:49;98986.78;;;1.15;91.26
61742;BME280;47650;49.848;9.620;2024-01-16T02:51:15;98985.97;;;1.27;89.92
61742;BME280;47650;49.848;9.620;2024-01-16T02:53:41;98981.22;;;1.07;91.32
61742;BME280;47650;49.848;9.620;2024-01-16T02:56:07;98950.50;;;0.98;90.85
61742;BME280;47650;49.848;9.620;2024-01-16T02:58:33;98980.94;;;0.84;92.24
61742;BME280;47650;49.848;9.620;2024-01-16T03:00:58;98991.38;;;0.84;92.78
61742;BME280;47650;49.848;9.620;2024-01-16T03:03:23;98809.72;;;-0.11;93.11
61742;BME280;47650;49.848;9.620;2024-01-16T03:05:51;99000.81;;;0.72;93.89
61742;BME280;47650;49.848;9.620;2024-01-16T03:08:16;98985.47;;;0.68;94.40
61742;BME280;47650;49.848;9.620;2024-01-16T03:10:41;98984.44;;;0.70;93.83
61742;BME280;47650;49.848;9.620;2024-01-16T03:13:07;98973.16;;;0.97;93.01
61742;BME280;47650;49.848;9.620;2024-01-16T03:15:33;98949.03;;;0.39;94.04
61742;BME280;47650;49.848;9.620;2024-01-16T03:17:59;98913.00;;;0.59;92.48
61742;BME280;47650;49.848;9.620;2024-01-16T03:20:26;98985.72;;;1.18;90.87
61742;BME280;47650;49.848;9.620;2024-01-16T03:22:52;98999.91;;;0.73;92.44
61742;BME280;47650;49.848;9.620;2024-01-16T03:25:18;98969.59;;;0.71;93.63
61742;BME280;47650;49.848;9.620;2024-01-16T03:27:45;98979.41;;;0.67;94.79
61742;BME280;47650;49.848;9.620;2024-01-16T03:30:12;98988.75;;;0.84;94.48
61742;BME280;47650;49.848;9.620;2024-01-16T03:32:38;98990.25;;;0.61;95.00
61742;BME280;47650;49.848;9.620;2024-01-16T03:35:05;98956.16;;;0.23;95.94
61742;BME280;47650;49.848;9.620;2024-01-16T03:37:31;98995.16;;;0.39;96.87
61742;BME280;47650;49.848;9.620;2024-01-16T03:39:56;99000.19;;;0.42;97.46
61742;BME280;47650;49.848;9.620;2024-01-16T03:42:23;99007.31;;;0.52;97.20
61742;BME280;47650;49.848;9.620;2024-01-16T03:44:49;98996.47;;;0.59;95.76
61742;BME280;47650;49.848;9.620;2024-01-16T03:47:15;98931.09;;;0.20;96.50
61742;BME280;47650;49.848;9.620;2024-01-16T03:49:40;98970.53;;;0.43;96.83
61742;BME280;47650;49.848;9.620;2024-01-16T03:52:08;98994.59;;;0.33;98.82
61742;BME280;47650;49.848;9.620;2024-01-16T03:54:33;98945.38;;;0.14;97.55
61742;BME280;47650;49.848;9.620;2024-01-16T03:57:01;98960.59;;;0.35;98.06
61742;BME280;47650;49.848;9.620;2024-01-16T03:59:26;98954.66;;;0.18;98.32
61742;BME280;47650;49.848;9.620;2024-01-16T04:01:53;98996.56;;;0.57;97.91
61742;BME280;47650;49.848;9.620;2024-01-16T04:04:19;99008.00;;;0.69;96.13
61742;BME280;47650;49.848;9.620;2024-01-16T04:06:46;99008.09;;;0.82;96.28
61742;BME280;47650;49.848;9.620;2024-01-16T04:09:13;98986.41;;;0.67;96.49
61742;BME280;47650;49.848;9.620;2024-01-16T04:11:40;99007.88;;;0.58;96.94
61742;BME280;47650;49.848;9.620;2024-01-16T04:14:07;98997.81;;;0.51;97.22
61742;BME280;47650;49.848;9.620;2024-01-16T04:16:32;98947.75;;;0.32;98.31
61742;BME280;47650;49.848;9.620;2024-01-16T04:19:04;99003.06;;;0.37;98.55
61742;BME280;47650;49.848;9.620;2024-01-16T04:21:29;98992.06;;;0.32;97.92
61742;BME280;47650;49.848;9.620;2024-01-16T04:23:54;99003.94;;;0.92;95.03
61742;BME280;47650;49.848;9.620;2024-01-16T04:26:20;99008.59;;;0.60;96.30
61742;BME280;47650;49.848;9.620;2024-01-16T04:28:48;99013.69;;;0.75;96.13
61742;BME280;47650;49.848;9.620;2024-01-16T04:31:13;99017.22;;;0.33;97.78
61742;BME280;47650;49.848;9.620;2024-01-16T04:33:39;98991.91;;;0.35;97.37
61742;BME280;47650;49.848;9.620;2024-01-16T04:36:05;99022.63;;;0.30;99.59
61742;BME280;47650;49.848;9.620;2024-01-16T04:38:32;99010.84;;;0.51;98.70
61742;BME280;47650;49.848;9.620;2024-01-16T04:41:01;99022.16;;;0.23;99.05
61742;BME280;47650;49.848;9.620;2024-01-16T04:43:27;99024.63;;;0.53;99.21
61742;BME280;47650;49.848;9.620;2024-01-16T04:45:58;98997.53;;;0.56;97.12
61742;BME280;47650;49.848;9.620;2024-01-16T04:48:23;99014.91;;;0.70;96.17
61742;BME280;47650;49.848;9.620;2024-01-16T04:50:50;99027.25;;;0.39;96.54
61742;BME280;47650;49.848;9.620;2024-01-16T04:53:15;99008.06;;;0.54;97.36
61742;BME280;47650;49.848;9.620;2024-01-16T04:55:42;99017.16;;;0.62;96.83
61742;BME280;47650;49.848;9.620;2024-01-16T04:58:07;99016.84;;;0.39;97.33
61742;BME280;47650;49.848;9.620;2024-01-16T05:00:32;98908.91;;;-0.72;97.21
61742;BME280;47650;49.848;9.620;2024-01-16T05:02:58;99010.47;;;0.58;95.24
61742;BME280;47650;49.848;9.620;2024-01-16T05:05:23;98996.88;;;0.52;95.89
61742;BME280;47650;49.848;9.620;2024-01-16T05:07:49;98991.41;;;0.43;95.72
61742;BME280;47650;49.848;9.620;2024-01-16T05:10:14;98998.72;;;0.65;95.23
61742;BME280;47650;49.848;9.620;2024-01-16T05:12:40;98933.09;;;0.02;95.96
61742;BME280;47650;49.848;9.620;2024-01-16T05:15:07;99011.47;;;0.69;94.40
61742;BME280;47650;49.848;9.620;2024-01-16T05:17:36;99010.22;;;0.48;96.10
61742;BME280;47650;49.848;9.620;2024-01-16T05:20:02;98984.44;;;0.29;95.88
61742;BME280;47650;49.848;9.620;2024-01-16T05:22:30;98984.44;;;0.29;95.20
61742;BME280;47650;49.848;9.620;2024-01-16T05:24:56;98847.84;;;-0.52;95.10
61742;BME280;47650;49.848;9.620;2024-01-16T05:27:27;98979.13;;;0.72;93.22
61742;BME280;47650;49.848;9.620;2024-01-16T05:29:52;99009.34;;;0.62;94.75
61742;BME280;47650;49.848;9.620;2024-01-16T05:34:45;99008.00;;;0.69;94.37
61742;BME280;47650;49.848;9.620;2024-01-16T05:37:11;98975.09;;;0.39;93.60
61742;BME280;47650;49.848;9.620;2024-01-16T05:39:45;98844.81;;;-0.31;92.97
61742;BME280;47650;49.848;9.620;2024-01-16T05:42:11;98995.38;;;0.48;94.11
61742;BME280;47650;49.848;9.620;2024-01-16T05:44:38;99000.41;;;0.66;92.94
61742;BME280;47650;49.848;9.620;2024-01-16T05:47:04;99001.38;;;0.36;95.56
61742;BME280;47650;49.848;9.620;2024-01-16T05:49:37;98995.28;;;0.23;95.38
61742;BME280;47650;49.848;9.620;2024-01-16T05:52:08;98996.16;;;0.36;95.33
61742;BME280;47650;49.848;9.620;2024-01-16T05:54:34;98969.75;;;0.13;96.47
61742;BME280;47650;49.848;9.620;2024-01-16T05:56:59;98970.03;;;0.23;93.91
61742;BME280;47650;49.848;9.620;2024-01-16T05:59:24;98997.84;;;0.37;95.11
61742;BME280;47650;49.848;9.620;2024-01-16T06:01:49;98991.13;;;0.47;94.40
61742;BME280;47650;49.848;9.620;2024-01-16T06:04:15;98980.50;;;0.78;92.16
61742;BME280;47650;49.848;9.620;2024-01-16T06:06:41;98989.88;;;0.53;92.48
61742;BME280;47650;49.848;9.620;2024-01-16T06:09:14;98985.16;;;0.45;92.48
61742;BME280;47650;49.848;9.620;2024-01-16T06:11:41;98980.50;;;0.36;93.86
61742;BME280;47650;49.848;9.620;2024-01-16T06:14:07;98894.56;;;-0.07;94.80
61742;BME280;47650;49.848;9.620;2024-01-16T06:16:33;98965.56;;;0.11;95.27
61742;BME280;47650;49.848;9.620;2024-01-16T06:21:26;98990.75;;;0.39;95.70
61742;BME280;47650;49.848;9.620;2024-01-16T06:23:51;98978.69;;;0.09;95.08
61742;BME280;47650;49.848;9.620;2024-01-16T06:26:17;98975.06;;;-0.03;96.54
61742;BME280;47650;49.848;9.620;2024-01-16T06:28:46;98957.28;;;0.04;96.22
61742;BME280;47650;49.848;9.620;2024-01-16T06:31:16;98958.00;;;0.21;95.79
61742;BME280;47650;49.848;9.620;2024-01-16T06:33:41;98712.06;;;-1.45;95.39
61742;BME280;47650;49.848;9.620;2024-01-16T06:36:07;98918.78;;;-0.05;96.11
61742;BME280;47650;49.848;9.620;2024-01-16T06:38:32;98963.31;;;0.33;95.16
61742;BME280;47650;49.848;9.620;2024-01-16T06:40:58;98954.41;;;0.09;95.41
61742;BME280;47650;49.848;9.620;2024-01-16T06:43:25;98974.59;;;0.20;95.81
61742;BME280;47650;49.848;9.620;2024-01-16T06:45:54;98970.66;;;0.27;95.71
61742;BME280;47650;49.848;9.620;2024-01-16T06:48:19;98967.84;;;0.44;94.09
61742;BME280;47650;49.848;9.620;2024-01-16T06:50:44;98959.88;;;0.87;91.17
61742;BME280;47650;49.848;9.620;2024-01-16T06:53:11;98953.75;;;0.74;90.88
61742;BME280;47650;49.848;9.620;2024-01-16T06:55:38;98956.88;;;0.66;89.41
61742;BME280;47650;49.848;9.620;2024-01-16T06:58:03;98956.03;;;0.66;89.55
61742;BME280;47650;49.848;9.620;2024-01-16T07:00:29;98913.16;;;0.43;89.79
61742;BME280;47650;49.848;9.620;2024-01-16T07:02:56;98950.41;;;0.72;88.46
61742;BME280;47650;49.848;9.620;2024-01-16T07:05:21;98968.13;;;0.67;87.79
61742;BME280;47650;49.848;9.620;2024-01-16T07:07:47;98949.94;;;0.52;88.54
61742;BME280;47650;49.848;9.620;2024-01-16T07:10:13;98968.56;;;0.61;89.13
61742;BME280;47650;49.848;9.620;2024-01-16T07:12:44;98872.81;;;-0.06;89.92
61742;BME280;47650;49.848;9.620;2024-01-16T07:15:09;98978.03;;;0.62;88.87
61742;BME280;47650;49.848;9.620;2024-01-16T07:17:36;98918.19;;;0.04;90.39
61742;BME280;47650;49.848;9.620;2024-01-16T07:20:01;98973.41;;;0.52;88.94
61742;BME280;47650;49.848;9.620;2024-01-16T07:22:27;98975.63;;;0.59;88.52
61742;BME280;47650;49.848;9.620;2024-01-16T07:24:52;98985.81;;;0.49;88.70
61742;BME280;47650;49.848;9.620;2024-01-16T07:27:18;98988.00;;;0.28;90.25
61742;BME280;47650;49.848;9.620;2024-01-16T07:29:45;98978.53;;;0.40;91.35
61742;BME280;47650;49.848;9.620;2024-01-16T07:32:11;98988.44;;;0.34;90.59
61742;BME280;47650;49.848;9.620;2024-01-16T07:34:38;98978.88;;;0.06;90.58
61742;BME280;47650;49.848;9.620;2024-01-16T07:37:06;98983.75;;;0.40;90.38
61742;BME280;47650;49.848;9.620;2024-01-16T07:39:31;98975.00;;;0.41;90.61
61742;BME280;47650;49.848;9.620;2024-01-16T07:41:56;98996.00;;;0.25;89.87
61742;BME280;47650;49.848;9.620;2024-01-16T07:44:24;98919.72;;;-0.35;90.57
61742;BME280;47650;49.848;9.620;2024-01-16T07:46:50;98984.72;;;0.39;89.84
61742;BME280;47650;49.848;9.620;2024-01-16T07:49:15;99000.59;;;0.48;88.86
61742;BME280;47650;49.848;9.620;2024-01-16T07:51:41;98961.47;;;0.07;88.90
61742;BME280;47650;49.848;9.620;2024-01-16T07:54:09;99003.75;;;0.53;88.27
61742;BME280;47650;49.848;9.620;2024-01-16T07:56:36;98933.63;;;0.22;85.59
61742;BME280;47650;49.848;9.620;2024-01-16T07:59:02;98968.75;;;0.43;85.81
61742;BME280;47650;49.848;9.620;2024-01-16T08:01:28;98989.91;;;0.80;84.82
61742;BME280;47650;49.848;9.620;2024-01-16T08:03:58;99001.81;;;0.84;83.99
61742;BME280;47650;49.848;9.620;2024-01-16T08:06:26;98959.69;;;0.63;83.65
61742;BME280;47650;49.848;9.620;2024-01-16T08:08:51;98976.69;;;0.69;83.87
61742;BME280;47650;49.848;9.620;2024-01-16T08:11:20;99008.09;;;0.67;84.62
61742;BME280;47650;49.848;9.620;2024-01-16T08:13:46;98985.66;;;0.65;84.09
61742;BME280;47650;49.848;9.620;2024-01-16T08:16:12;98981.69;;;0.45;84.70
61742;BME280;47650;49.848;9.620;2024-01-16T08:18:38;98976.88;;;0.80;84.45
61742;BME280;47650;49.848;9.620;2024-01-16T08:21:03;99021.97;;;1.22;83.45
61742;BME280;47650;49.848;9.620;2024-01-16T08:23:29;98958.56;;;1.07;82.40
61742;BME280;47650;49.848;9.620;2024-01-16T08:25:54;98983.59;;;1.37;79.68
61742;BME280;47650;49.848;9.620;2024-01-16T08:28:20;98996.78;;;1.61;77.98
61742;BME280;47650;49.848;9.620;2024-01-16T08:30:50;99015.06;;;1.74;76.63
61742;BME280;47650;49.848;9.620;2024-01-16T08:33:17;99034.22;;;1.87;77.07
61742;BME280;47650;49.848;9.620;2024-01-16T08:35:42;99006.38;;;1.48;77.26
61742;BME280;47650;49.848;9.620;2024-01-16T08:38:07;99028.97;;;1.75;76.25
61742;BME280;47650;49.848;9.620;2024-01-16T08:40:32;99033.50;;;1.33;78.78
61742;BME280;47650;49.848;9.620;2024-01-16T08:42:58;99013.03;;;1.26;77.71
61742;BME280;47650;49.848;9.620;2024-01-16T08:45:24;99026.19;;;1.38;77.83
61742;BME280;47650;49.848;9.620;2024-01-16T08:47:51;99032.09;;;1.67;77.65
61742;BME280;47650;49.848;9.620;2024-01-16T08:50:19;98987.69;;;1.14;77.54
61742;BME280;47650;49.848;9.620;2024-01-16T08:52:44;99027.97;;;1.37;77.36
61742;BME280;47650;49.848;9.620;2024-01-16T08:55:10;99017.25;;;1.55;76.83
61742;BME280;47650;49.848;9.620;2024-01-16T08:57:39;99028.13;;;1.61;76.89
61742;BME280;47650;49.848;9.620;2024-01-16T09:00:05;99007.00;;;1.90;77.48
61742;BME280;47650;49.848;9.620;2024-01-16T09:02:35;98995.41;;;1.81;76.87
61742;BME280;47650;49.848;9.620;2024-01-16T09:05:01;98960.88;;;2.02;73.65
61742;BME280;47650;49.848;9.620;2024-01-16T09:07:26;99022.84;;;2.38;71.91
61742;BME280;47650;49.848;9.620;2024-01-16T09:09:52;99012.03;;;2.56;71.25
61742;BME280;47650;49.848;9.620;2024-01-16T09:12:29;99010.00;;;2.72;67.95
61742;BME280;47650;49.848;9.620;2024-01-16T09:14:54;99034.59;;;2.70;69.19
61742;BME280;47650;49.848;9.620;2024-01-16T09:17:20;98817.91;;;1.03;70.10
61742;BME280;47650;49.848;9.620;2024-01-16T09:19:45;99047.22;;;2.89;68.47
61742;BME280;47650;49.848;9.620;2024-01-16T09:22:11;98998.03;;;3.05;66.12
61742;BME280;47650;49.848;9.620;2024-01-16T09:24:38;98969.13;;;2.82;64.71
61742;BME280;47650;49.848;9.620;2024-01-16T09:27:09;99023.41;;;3.40;65.87
61742;BME280;47650;49.848;9.620;2024-01-16T09:29:36;99024.28;;;3.63;63.45
61742;BME280;47650;49.848;9.620;2024-01-16T09:32:01;99019.13;;;2.67;68.13
61742;BME280;47650;49.848;9.620;2024-01-16T09:34:27;98971.84;;;3.16;63.17
61742;BME280;47650;49.848;9.620;2024-01-16T09:36:53;99038.50;;;2.64;64.28
61742;BME280;47650;49.848;9.620;2024-01-16T09:39:24;98964.56;;;1.74;66.48
61742;BME280;47650;49.848;9.620;2024-01-16T09:41:50;99048.16;;;2.51;66.17
61742;BME280;47650;49.848;9.620;2024-01-16T09:44:16;99042.75;;;2.28;66.46
61742;BME280;47650;49.848;9.620;2024-01-16T09:46:44;99019.31;;;2.26;67.07
61742;BME280;47650;49.848;9.620;2024-01-16T09:49:14;99023.91;;;2.23;67.21
61742;BME280;47650;49.848;9.620;2024-01-16T09:51:42;98986.88;;;1.13;70.71
61742;BME280;47650;49.848;9.620;2024-01-16T09:54:07;99038.50;;;2.64;67.23
61742;BME280;47650;49.848;9.620;2024-01-16T09:56:40;99018.41;;;1.63;69.08
61742;BME280;47650;49.848;9.620;2024-01-16T09:59:09;99053.00;;;2.31;68.39
61742;BME280;47650;49.848;9.620;2024-01-16T10:01:35;99047.78;;;2.68;66.96
61742;BME280;47650;49.848;9.620;2024-01-16T10:04:02;99058.25;;;2.31;67.05
61742;BME280;47650;49.848;9.620;2024-01-16T10:06:29;99048.78;;;3.15;63.50
61742;BME280;47650;49.848;9.620;2024-01-16T10:08:56;99046.47;;;3.24;61.83
61742;BME280;47650;49.848;9.620;2024-01-16T10:11:24;99022.22;;;2.48;63.91
61742;BME280;47650;49.848;9.620;2024-01-16T10:13:52;99054.41;;;2.61;63.77
61742;BME280;47650;49.848;9.620;2024-01-16T10:16:18;99057.59;;;2.40;64.27
61742;BME280;47650;49.848;9.620;2024-01-16T10:18:49;99016.88;;;3.22;62.41
61742;BME280;47650;49.848;9.620;2024-01-16T10:21:25;98989.06;;;3.32;60.77
61742;BME280;47650;49.848;9.620;2024-01-16T10:23:54;99018.84;;;3.89;57.22
61742;BME280;47650;49.848;9.620;2024-01-16T10:26:21;98965.16;;;3.48;56.65
61742;BME280;47650;49.848;9.620;2024-01-16T10:28:46;98963.97;;;3.05;56.65
61742;BME280;47650;49.848;9.620;2024-01-16T10:31:13;99022.81;;;4.06;56.62
61742;BME280;47650;49.848;9.620;2024-01-16T10:33:41;98956.63;;;3.10;57.03
61742;BME280;47650;49.848;9.620;2024-01-16T10:36:16;99032.47;;;3.47;58.32
61742;BME280;47650;49.848;9.620;2024-01-16T10:38:43;99023.06;;;3.45;58.09
61742;BME280;47650;49.848;9.620;2024-01-16T10:41:16;99004.50;;;3.59;56.79
61742;BME280;47650;49.848;9.620;2024-01-16T10:43:42;99022.81;;;3.94;57.97
61742;BME280;47650;49.848;9.620;2024-01-16T10:46:10;99018.59;;;3.81;57.86
61742;BME280;47650;49.848;9.620;2024-01-16T10:48:37;98936.94;;;3.63;56.79
61742;BME280;47650;49.848;9.620;2024-01-16T10:51:09;98967.09;;;3.68;56.17
61742;BME280;47650;49.848;9.620;2024-01-16T10:53:48;98988.22;;;4.01;54.95
61742;BME280;47650;49.848;9.620;2024-01-16T10:56:13;98995.38;;;4.21;54.46
61742;BME280;47650;49.848;9.620;2024-01-16T10:58:43;98977.59;;;4.13;54.17
61742;BME280;47650;49.848;9.620;2024-01-16T11:01:15;98990.50;;;4.28;54.01
61742;BME280;47650;49.848;9.620;2024-01-16T11:03:49;98992.63;;;4.89;52.38
61742;BME280;47650;49.848;9.620;2024-01-16T11:06:17;98883.09;;;3.47;52.42
61742;BME280;47650;49.848;9.620;2024-01-16T11:08:46;98986.16;;;4.49;52.57
61742;BME280;47650;49.848;9.620;2024-01-16T11:11:13;99009.69;;;4.40;53.00
61742;BME280;47650;49.848;9.620;2024-01-16T11:13:43;99005.53;;;4.03;55.29
61742;BME280;47650;49.848;9.620;2024-01-16T11:16:14;98990.97;;;4.22;53.78
61742;BME280;47650;49.848;9.620;2024-01-16T11:18:41;98985.28;;;3.47;55.14
61742;BME280;47650;49.848;9.620;2024-01-16T11:21:12;98998.25;;;4.29;55.55
61742;BME280;47650;49.848;9.620;2024-01-16T11:23:39;98993.09;;;4.94;52.03
61742;BME280;47650;49.848;9.620;2024-01-16T11:26:33;99002.25;;;4.67;52.82
61742;BME280;47650;49.848;9.620;2024-01-16T11:31:50;98936.28;;;4.93;50.36
61742;BME280;47650;49.848;9.620;2024-01-16T11:37:33;98978.47;;;5.55;49.44
61742;BME280;47650;49.848;9.620;2024-01-16T11:42:42;98857.47;;;3.62;51.85
61742;BME280;47650;49.848;9.620;2024-01-16T11:45:08;98804.22;;;3.62;52.01
61742;BME280;47650;49.848;9.620;2024-01-16T11:48:09;98967.00;;;5.56;50.45
61742;BME280;47650;49.848;9.620;2024-01-16T11:50:36;98913.44;;;5.88;47.81
61742;BME280;47650;49.848;9.620;2024-01-16T11:53:08;98958.44;;;5.84;48.90
61742;BME280;47650;49.848;9.620;2024-01-16T11:58:48;98920.97;;;5.40;48.79
61742;BME280;47650;49.848;9.620;2024-01-16T12:01:19;98956.75;;;5.11;49.83
61742;BME280;47650;49.848;9.620;2024-01-16T12:03:46;98906.69;;;3.81;50.47
61742;BME280;47650;49.848;9.620;2024-01-16T12:06:16;98957.78;;;4.43;51.34
61742;BME280;47650;49.848;9.620;2024-01-16T12:08:43;98889.34;;;4.24;51.40
61742;BME280;47650;49.848;9.620;2024-01-16T12:11:12;98936.66;;;3.32;53.48
61742;BME280;47650;49.848;9.620;2024-01-16T12:13:43;98924.28;;;4.36;51.71
61742;BME280;47650;49.848;9.620;2024-01-16T12:16:21;98910.28;;;5.11;50.09
61742;BME280;47650;49.848;9.620;2024-01-16T12:19:10;98915.22;;;4.72;48.73
61742;BME280;47650;49.848;9.620;2024-01-16T12:21:46;98909.38;;;4.68;50.04
61742;BME280;47650;49.848;9.620;2024-01-16T12:24:16;98873.44;;;6.25;49.52
61742;BME280;47650;49.848;9.620;2024-01-16T12:26:44;98909.81;;;6.89;46.63
61742;BME280;47650;49.848;9.620;2024-01-16T12:29:17;98871.25;;;6.49;44.90
61742;BME280;47650;49.848;9.620;2024-01-16T12:31:42;98907.84;;;6.52;46.43
61742;BME280;47650;49.848;9.620;2024-01-16T12:34:09;98865.16;;;5.58;47.50
61742;BME280;47650;49.848;9.620;2024-01-16T12:36:35;98914.19;;;5.17;47.86
61742;BME280;47650;49.848;9.620;2024-01-16T12:39:05;98847.00;;;5.55;46.43
61742;BME280;47650;49.848;9.620;2024-01-16T12:41:36;98851.56;;;6.83;45.19
61742;BME280;47650;49.848;9.620;2024-01-16T12:44:03;98886.41;;;7.43;43.95
61742;BME280;47650;49.848;9.620;2024-01-16T12:46:29;98872.66;;;5.11;45.70
61742;BME280;47650;49.848;9.620;2024-01-16T12:51:23;98869.03;;;5.54;45.64
61742;BME280;47650;49.848;9.620;2024-01-16T12:53:50;98883.22;;;5.72;46.12
61742;BME280;47650;49.848;9.620;2024-01-16T12:56:19;98872.78;;;6.42;44.85
61742;BME280;47650;49.848;9.620;2024-01-16T12:58:45;98884.81;;;5.94;43.48
61742;BME280;47650;49.848;9.620;2024-01-16T13:01:25;98819.88;;;5.95;44.90
61742;BME280;47650;49.848;9.620;2024-01-16T13:03:57;98870.75;;;5.74;46.05
61742;BME280;47650;49.848;9.620;2024-01-16T13:06:26;98855.34;;;4.66;47.72
61742;BME280;47650;49.848;9.620;2024-01-16T13:09:05;98879.31;;;5.15;47.87
61742;BME280;47650;49.848;9.620;2024-01-16T13:11:58;98875.47;;;5.19;47.94
61742;BME280;47650;49.848;9.620;2024-01-16T13:14:26;98805.31;;;4.67;47.48
61742;BME280;47650;49.848;9.620;2024-01-16T13:16:53;98872.56;;;5.43;47.19
61742;BME280;47650;49.848;9.620;2024-01-16T13:19:28;98816.53;;;4.90;47.16
61742;BME280;47650;49.848;9.620;2024-01-16T13:22:04;98841.56;;;4.95;46.42
61742;BME280;47650;49.848;9.620;2024-01-16T13:24:29;98873.72;;;4.87;47.55
61742;BME280;47650;49.848;9.620;2024-01-16T13:26:54;98863.03;;;5.21;46.39
61742;BME280;47650;49.848;9.620;2024-01-16T13:29:27;98856.19;;;4.87;47.81
61742;BME280;47650;49.848;9.620;2024-01-16T13:31:53;98853.63;;;4.97;47.19
61742;BME280;47650;49.848;9.620;2024-01-16T13:34:20;98790.16;;;4.50;47.30